Time;durP1;ratioP1;P1;durP2;ratioP2;P2;SDS_P1;SDS_P2;PMS_P1;PMS_P2;Temp;Humidity;BMP_temperature;BMP_pressure;BME280_temperature;BME280_humidity;BME280_pressure;Samples;Min_cycle;Max_cycle;Signal;HPM_P1;HPM_P2
2020/12/23 00:05:07;;;;;;;0.77;0.77;;;9.50;99.90;;;;;;20942634;28;20667;-71
2020/12/23 00:15:10;;;;;;;0.20;0.13;;;9.60;99.90;;;;;;20951945;28;20270;-72
2020/12/23 00:25:13;;;;;;;1.30;1.00;;;10.60;99.90;;;;;;20952803;28;20236;-72
2020/12/23 00:35:17;;;;;;;6.43;0.60;;;11.20;99.90;;;;;;20950970;28;20274;-72
2020/12/23 00:45:19;;;;;;;0.43;0.43;;;11.80;99.90;;;;;;20951345;28;20224;-71
2020/12/23 00:55:23;;;;;;;1.43;0.93;;;12.00;99.90;;;;;;20949384;28;20212;-71
2020/12/23 01:05:25;;;;;;;0.47;0.47;;;12.30;99.90;;;;;;20949951;28;20390;-72
2020/12/23 01:15:29;;;;;;;0.30;0.30;;;12.50;99.90;;;;;;20948821;28;20665;-73
2020/12/23 01:25:31;;;;;;;4.53;0.77;;;12.40;99.90;;;;;;20948386;28;20588;-73
2020/12/23 01:35:35;;;;;;;0.73;0.30;;;12.60;99.90;;;;;;20946014;28;20507;-71
2020/12/23 01:45:38;;;;;;;0.70;0.70;;;12.60;99.90;;;;;;20945317;28;20262;-71
2020/12/23 01:55:43;;;;;;;0.67;0.67;;;12.60;99.90;;;;;;20945719;28;20201;-72
2020/12/23 02:05:46;;;;;;;0.97;0.70;;;12.40;99.90;;;;;;20944391;28;20220;-71
2020/12/23 02:15:49;;;;;;;0.20;0.20;;;12.00;99.90;;;;;;20945531;28;20590;-71
2020/12/23 02:25:53;;;;;;;0.80;0.63;;;10.80;99.90;;;;;;20949904;28;20225;-72
2020/12/23 02:35:56;;;;;;;0.20;0.20;;;9.60;99.90;;;;;;20944539;28;20576;-72
2020/12/23 02:45:59;;;;;;;0.20;0.13;;;9.60;99.90;;;;;;20943680;28;20224;-73
2020/12/23 02:56:03;;;;;;;0.63;0.63;;;9.40;99.90;;;;;;20942736;28;20227;-72
2020/12/23 03:06:06;;;;;;;0.20;0.20;;;9.20;99.90;;;;;;20843141;23;20233;-71
2020/12/23 03:16:09;;;;;;;1.70;0.73;;;9.20;99.90;;;;;;20777525;28;20197;-72
2020/12/23 03:26:13;;;;;;;0.20;0.10;;;9.00;99.90;;;;;;20774951;28;20237;-72
2020/12/23 03:36:16;;;;;;;1.60;0.93;;;8.90;99.90;;;;;;20777174;28;20198;-72
2020/12/23 03:46:19;;;;;;;0.20;0.10;;;9.00;99.90;;;;;;20769564;28;20713;-70
2020/12/23 03:56:21;;;;;;;1.40;0.93;;;9.00;99.90;;;;;;20792099;28;20210;-70
2020/12/23 04:06:25;;;;;;;0.23;0.23;;;9.20;99.90;;;;;;20789015;28;20715;-73
2020/12/23 04:16:27;;;;;;;0.20;0.10;;;9.00;99.90;;;;;;20790330;28;20361;-71
2020/12/23 04:26:31;;;;;;;4.57;1.07;;;9.00;99.90;;;;;;20787790;28;20265;-72
2020/12/23 04:36:34;;;;;;;0.50;0.50;;;8.90;99.90;;;;;;20788010;28;20732;-71
2020/12/23 04:46:39;;;;;;;0.50;0.43;;;9.00;99.90;;;;;;20784949;28;20226;-71
2020/12/23 04:56:42;;;;;;;0.70;0.63;;;9.00;99.90;;;;;;20785997;28;20195;-72
2020/12/23 05:06:47;;;;;;;0.27;0.23;;;8.80;99.90;;;;;;20786117;28;20236;-72
2020/12/23 05:16:50;;;;;;;0.93;0.87;;;8.80;99.90;;;;;;20768930;28;21062;-72
2020/12/23 05:26:58;;;;;;;0.43;0.27;;;9.20;99.90;;;;;;20783714;28;20214;-72
2020/12/23 05:37:02;;;;;;;0.53;0.53;;;8.90;99.90;;;;;;20782493;28;20205;-72
2020/12/23 05:47:06;;;;;;;0.53;0.53;;;8.90;99.90;;;;;;20782568;28;20701;-75
2020/12/23 05:57:09;;;;;;;0.57;0.57;;;8.90;99.90;;;;;;20781296;28;20280;-69
2020/12/23 06:07:13;;;;;;;3.07;0.73;;;8.80;99.90;;;;;;20779421;28;20240;-71
2020/12/23 06:17:19;;;;;;;1.43;1.33;;;8.90;99.90;;;;;;20779258;28;20202;-73
2020/12/23 06:27:22;;;;;;;0.90;0.87;;;9.20;99.90;;;;;;20779451;28;20199;-73
2020/12/23 06:37:26;;;;;;;1.20;0.87;;;9.10;99.90;;;;;;20740876;28;20289;-72
2020/12/23 06:47:30;;;;;;;0.73;0.73;;;9.20;99.90;;;;;;20696068;28;20202;-72
2020/12/23 06:57:58;;;;;;;0.90;0.83;;;9.50;99.90;;;;;;20716575;28;20297;-72
2020/12/23 07:08:03;;;;;;;0.40;0.40;;;9.40;99.90;;;;;;20772119;28;20592;-69
2020/12/23 07:18:07;;;;;;;0.27;0.23;;;9.70;99.90;;;;;;20783108;28;20229;-71
2020/12/23 07:28:11;;;;;;;0.80;0.80;;;9.50;99.90;;;;;;20770576;28;20198;-71
2020/12/23 07:38:15;;;;;;;0.30;0.30;;;10.20;99.90;;;;;;20788512;28;20256;-70
2020/12/23 07:48:19;;;;;;;0.97;0.57;;;10.50;99.90;;;;;;20787502;28;20252;-71
2020/12/23 07:58:22;;;;;;;2.33;1.97;;;11.30;99.90;;;;;;20784954;28;20214;-70
2020/12/23 08:08:29;;;;;;;0.87;0.87;;;11.60;99.90;;;;;;20786075;28;20245;-73
2020/12/23 08:18:31;;;;;;;2.13;1.07;;;12.10;99.90;;;;;;20789343;28;20575;-74
2020/12/23 08:28:37;;;;;;;1.17;0.83;;;12.40;99.90;;;;;;20782943;28;20682;-72
2020/12/23 08:38:41;;;;;;;1.83;1.40;;;12.60;99.90;;;;;;20776405;28;20218;-73
2020/12/23 08:48:48;;;;;;;1.10;1.00;;;12.90;99.90;;;;;;20762263;28;20599;-72
2020/12/23 08:58:52;;;;;;;2.10;1.17;;;13.30;99.90;;;;;;20778743;28;20233;-71
2020/12/23 09:09:09;;;;;;;0.90;0.90;;;13.60;99.90;;;;;;20781301;28;20233;-73
2020/12/23 09:19:15;;;;;;;2.30;1.53;;;13.80;99.90;;;;;;20782433;28;20237;-72
2020/12/23 09:29:23;;;;;;;1.93;1.60;;;14.10;99.90;;;;;;20760877;28;20564;-73
2020/12/23 09:39:30;;;;;;;0.93;0.93;;;14.40;99.90;;;;;;20780070;28;20686;-74
2020/12/23 09:49:33;;;;;;;1.43;1.33;;;14.50;99.90;;;;;;20776834;28;20195;-72
2020/12/23 09:59:36;;;;;;;3.33;1.93;;;14.60;99.90;;;;;;20776583;28;20216;-74
2020/12/23 10:09:41;;;;;;;1.47;1.37;;;14.70;99.90;;;;;;20776800;28;20190;-72
2020/12/23 10:19:44;;;;;;;1.03;0.73;;;15.00;99.90;;;;;;20775702;28;20577;-70
2020/12/23 10:29:48;;;;;;;1.40;1.30;;;15.10;99.90;;;;;;20776672;28;20198;-70
2020/12/23 10:39:51;;;;;;;0.73;0.73;;;15.50;99.90;;;;;;20775402;28;20271;-71
2020/12/23 10:49:54;;;;;;;2.17;1.10;;;16.00;99.90;;;;;;20776080;28;20273;-72
2020/12/23 10:59:57;;;;;;;1.77;1.10;;;16.00;99.90;;;;;;20773202;28;20233;-74
2020/12/23 11:10:02;;;;;;;1.10;1.03;;;16.00;99.90;;;;;;20772740;28;20690;-72
2020/12/23 11:20:05;;;;;;;1.13;1.03;;;15.80;99.90;;;;;;20755865;28;20253;-71
2020/12/23 11:30:09;;;;;;;1.03;0.70;;;16.00;99.90;;;;;;20773812;28;20220;-72
2020/12/23 11:40:12;;;;;;;6.53;1.93;;;15.90;99.90;;;;;;20772119;28;20643;-72
2020/12/23 11:50:15;;;;;;;0.93;0.93;;;15.90;99.90;;;;;;20753341;28;20360;-72
2020/12/23 12:00:18;;;;;;;5.63;3.70;;;16.10;99.90;;;;;;20771935;28;20663;-71
2020/12/23 12:10:21;;;;;;;4.17;1.90;;;15.90;99.90;;;;;;20785066;28;20205;-71
2020/12/23 12:20:24;;;;;;;4.43;1.77;;;16.00;99.90;;;;;;20768222;28;20224;-73
2020/12/23 12:30:28;;;;;;;2.10;1.63;;;16.30;99.90;;;;;;20764846;28;20673;-73
2020/12/23 12:40:32;;;;;;;1.13;1.03;;;16.80;99.90;;;;;;20785205;28;20240;-73
2020/12/23 12:50:35;;;;;;;2.07;1.20;;;17.10;99.90;;;;;;20784195;28;20277;-72
2020/12/23 13:00:38;;;;;;;0.87;0.70;;;16.60;99.90;;;;;;20783074;28;20593;-69
2020/12/23 13:10:41;;;;;;;0.93;0.93;;;16.70;99.90;;;;;;20782655;28;20209;-71
2020/12/23 13:20:45;;;;;;;0.63;0.53;;;17.50;99.90;;;;;;20782175;28;20583;-75
2020/12/23 13:30:48;;;;;;;0.27;0.27;;;18.80;99.90;;;;;;20764405;28;20201;-78
2020/12/23 13:40:51;;;;;;;0.40;0.27;;;18.60;99.90;;;;;;20781851;28;20522;-72
2020/12/23 13:50:55;;;;;;;0.60;0.60;;;18.20;99.90;;;;;;20777837;28;20546;-73
2020/12/23 14:00:58;;;;;;;0.20;0.20;;;17.30;99.90;;;;;;20780601;28;20233;-72
2020/12/23 14:11:02;;;;;;;1.47;1.20;;;17.20;99.90;;;;;;20761560;28;20201;-73
2020/12/23 14:21:05;;;;;;;4.30;1.20;;;17.20;99.90;;;;;;20778206;28;20463;-73
2020/12/23 14:31:09;;;;;;;2.70;0.67;;;17.20;99.90;;;;;;20773529;28;20209;-73
2020/12/23 14:41:14;;;;;;;4.20;1.20;;;16.40;99.90;;;;;;20758243;28;20229;-72
2020/12/23 14:51:23;;;;;;;0.83;0.83;;;16.00;99.90;;;;;;20755853;28;20232;-71
2020/12/23 15:01:26;;;;;;;0.83;0.57;;;15.60;99.90;;;;;;20773816;28;20233;-72
2020/12/23 15:11:30;;;;;;;2.53;2.33;;;15.60;99.90;;;;;;20754454;28;20284;-73
2020/12/23 15:21:32;;;;;;;2.73;1.03;;;15.60;99.90;;;;;;20769423;28;20304;-71
2020/12/23 15:31:36;;;;;;;1.57;1.07;;;15.30;99.90;;;;;;20768188;28;20466;-73
2020/12/23 15:41:39;;;;;;;0.77;0.57;;;15.20;99.90;;;;;;20782308;28;20222;-70
2020/12/23 15:51:42;;;;;;;6.13;1.33;;;15.00;99.90;;;;;;20783444;28;20190;-71
2020/12/23 16:01:45;;;;;;;1.27;0.80;;;15.40;99.90;;;;;;20783538;28;20558;-71
2020/12/23 16:11:52;;;;;;;0.43;0.43;;;15.10;99.90;;;;;;20781571;28;20194;-71
2020/12/23 16:21:54;;;;;;;1.27;1.17;;;15.00;99.90;;;;;;20783046;28;20687;-70
2020/12/23 16:32:00;;;;;;;1.37;0.83;;;14.80;99.90;;;;;;20764825;28;20213;-70
2020/12/23 16:42:06;;;;;;;0.80;0.80;;;14.80;99.90;;;;;;20779792;28;20275;-71
2020/12/23 16:52:14;;;;;;;1.60;0.97;;;14.60;99.90;;;;;;20780581;28;20236;-71
2020/12/23 17:02:16;;;;;;;7.83;1.47;;;14.60;99.90;;;;;;20760102;28;20260;-69
2020/12/23 17:12:20;;;;;;;4.07;1.87;;;14.40;99.90;;;;;;20779916;28;20194;-72
2020/12/23 17:22:22;;;;;;;1.80;1.37;;;14.30;99.90;;;;;;20777357;28;20218;-69
2020/12/23 17:32:26;;;;;;;0.63;0.63;;;14.20;99.90;;;;;;20771925;28;20244;-69
2020/12/23 17:42:28;;;;;;;2.27;1.77;;;13.70;99.90;;;;;;20757282;28;20241;-70
2020/12/23 17:52:32;;;;;;;2.00;0.67;;;13.20;99.90;;;;;;20756220;28;20198;-71
2020/12/23 18:02:40;;;;;;;0.60;0.43;;;13.20;99.90;;;;;;20774716;28;20233;-69
2020/12/23 18:12:44;;;;;;;2.23;1.60;;;13.00;99.90;;;;;;20768015;28;21110;-71
2020/12/23 18:22:46;;;;;;;2.53;2.33;;;12.80;99.90;;;;;;20774477;28;20218;-69
2020/12/23 18:32:50;;;;;;;1.43;1.33;;;12.20;99.90;;;;;;20748715;28;20214;-71
2020/12/23 18:42:52;;;;;;;1.40;1.30;;;12.20;99.90;;;;;;20688576;28;20672;-69
2020/12/23 18:52:58;;;;;;;1.47;1.37;;;12.30;99.90;;;;;;20689395;28;20561;-69
2020/12/23 19:03:01;;;;;;;1.50;1.23;;;12.40;99.90;;;;;;20687929;28;20249;-70
2020/12/23 19:13:04;;;;;;;1.63;1.47;;;11.70;99.90;;;;;;20689657;28;20225;-70
2020/12/23 19:23:10;;;;;;;2.67;1.87;;;12.00;99.90;;;;;;20688544;28;20223;-69
2020/12/23 19:33:14;;;;;;;17.17;2.33;;;11.90;99.90;;;;;;20689225;28;20229;-69
2020/12/23 19:43:17;;;;;;;6.10;3.50;;;11.40;99.90;;;;;;20689498;28;20365;-73
2020/12/23 19:53:21;;;;;;;4.93;2.33;;;11.20;99.90;;;;;;20673702;28;20731;-70
2020/12/23 20:03:23;;;;;;;1.67;1.57;;;11.40;99.90;;;;;;20708398;28;20289;-70
2020/12/23 20:13:27;;;;;;;2.03;1.80;;;11.30;99.90;;;;;;20751800;28;20211;-72
2020/12/23 20:23:30;;;;;;;3.43;2.37;;;11.60;99.90;;;;;;20772203;28;20233;-71
2020/12/23 20:33:35;;;;;;;3.87;3.20;;;11.20;99.90;;;;;;20785163;28;20201;-72
2020/12/23 20:43:49;;;;;;;1.77;1.63;;;11.10;99.90;;;;;;20780780;28;20247;-71
2020/12/23 20:53:53;;;;;;;5.20;2.87;;;10.60;99.90;;;;;;20782862;28;20221;-72
2020/12/23 21:03:55;;;;;;;2.80;2.23;;;10.70;99.90;;;;;;20783043;28;20233;-71
2020/12/23 21:13:59;;;;;;;12.77;2.77;;;10.50;99.90;;;;;;20781061;28;21076;-71
2020/12/23 21:24:02;;;;;;;1.40;1.03;;;10.60;99.90;;;;;;20782268;28;20240;-73
2020/12/23 21:34:06;;;;;;;0.67;0.67;;;10.70;99.90;;;;;;20779538;28;20202;-72
2020/12/23 21:44:09;;;;;;;2.50;1.43;;;10.40;99.90;;;;;;20780854;28;20229;-71
2020/12/23 21:54:23;;;;;;;4.30;2.33;;;10.40;99.90;;;;;;20777561;28;20521;-71
2020/12/23 22:04:25;;;;;;;1.27;1.03;;;10.00;99.90;;;;;;20778361;28;20344;-70
2020/12/23 22:14:29;;;;;;;1.67;1.17;;;9.90;99.90;;;;;;20777863;28;20550;-70
2020/12/23 22:24:36;;;;;;;2.80;1.47;;;10.40;99.90;;;;;;20758454;28;20280;-71
2020/12/23 22:34:40;;;;;;;6.77;2.40;;;10.40;99.90;;;;;;20774938;28;20617;-71
2020/12/23 22:44:43;;;;;;;2.83;2.20;;;10.70;99.90;;;;;;20775900;28;20233;-71
2020/12/23 22:54:55;;;;;;;5.80;3.87;;;10.70;99.90;;;;;;20758881;28;20200;-72
2020/12/23 23:04:58;;;;;;;1.43;1.33;;;10.70;99.90;;;;;;20757149;28;20725;-71
2020/12/23 23:15:01;;;;;;;3.07;1.53;;;10.70;99.90;;;;;;20776591;28;20622;-72
2020/12/23 23:25:14;;;;;;;2.27;2.07;;;10.60;99.90;;;;;;20774586;28;20548;-72
2020/12/23 23:35:19;;;;;;;4.47;2.40;;;10.40;99.90;;;;;;20774862;28;20190;-72
2020/12/23 23:45:22;;;;;;;2.60;1.93;;;10.40;99.90;;;;;;20774927;28;20400;-71
2020/12/23 23:55:35;;;;;;;8.70;2.67;;;10.40;99.90;;;;;;20774410;28;20190;-71
